sensor_id;sensor_type;location;lat;lon;timestamp;P1;durP1;ratioP1;P2;durP2;ratioP2
23668;SDS011;12011;47.422;15.018;2022-07-03T16:49:36;11.57;;;7.56;;
23668;SDS011;12011;47.422;15.018;2022-07-03T16:52:10;3.31;;;2.62;;
23668;SDS011;12011;47.422;15.018;2022-07-03T16:54:40;2.28;;;2.10;;
23668;SDS011;12011;47.422;15.018;2022-07-03T16:57:09;2.24;;;2.24;;
23668;SDS011;12011;47.422;15.018;2022-07-03T16:59:40;2.06;;;2.06;;
23668;SDS011;12011;47.422;15.018;2022-07-03T17:02:15;2.07;;;2.07;;
23668;SDS011;12011;47.422;15.018;2022-07-03T17:04:52;1.81;;;1.81;;
23668;SDS011;12011;47.422;15.018;2022-07-03T17:07:25;1.86;;;1.86;;
23668;SDS011;12011;47.422;15.018;2022-07-03T17:09:56;1.89;;;1.89;;
23668;SDS011;12011;47.422;15.018;2022-07-03T17:12:27;1.89;;;1.89;;
23668;SDS011;12011;47.422;15.018;2022-07-03T17:14:56;1.85;;;1.85;;
23668;SDS011;12011;47.422;15.018;2022-07-03T17:17:26;1.78;;;1.78;;
23668;SDS011;12011;47.422;15.018;2022-07-03T17:19:59;1.80;;;1.80;;
23668;SDS011;12011;47.422;15.018;2022-07-03T17:22:37;1.74;;;1.74;;
23668;SDS011;12011;47.422;15.018;2022-07-03T17:25:12;1.92;;;1.92;;
23668;SDS011;12011;47.422;15.018;2022-07-03T17:27:52;1.81;;;1.81;;
23668;SDS011;12011;47.422;15.018;2022-07-03T17:30:28;1.59;;;1.59;;
23668;SDS011;12011;47.422;15.018;2022-07-03T17:33:06;1.72;;;1.72;;
23668;SDS011;12011;47.422;15.018;2022-07-03T17:35:41;1.92;;;1.92;;
23668;SDS011;12011;47.422;15.018;2022-07-03T17:38:14;2.00;;;2.00;;
23668;SDS011;12011;47.422;15.018;2022-07-03T17:40:45;1.79;;;1.79;;
23668;SDS011;12011;47.422;15.018;2022-07-03T17:43:15;1.86;;;1.86;;
23668;SDS011;12011;47.422;15.018;2022-07-03T17:45:49;1.86;;;1.86;;
23668;SDS011;12011;47.422;15.018;2022-07-03T17:48:19;1.82;;;1.82;;
23668;SDS011;12011;47.422;15.018;2022-07-03T17:50:54;1.78;;;1.78;;
23668;SDS011;12011;47.422;15.018;2022-07-03T17:53:24;1.79;;;1.79;;
23668;SDS011;12011;47.422;15.018;2022-07-03T17:55:54;2.05;;;2.05;;
23668;SDS011;12011;47.422;15.018;2022-07-03T17:58:25;1.79;;;1.79;;
23668;SDS011;12011;47.422;15.018;2022-07-03T18:00:57;1.96;;;1.96;;
23668;SDS011;12011;47.422;15.018;2022-07-03T18:03:27;2.10;;;2.10;;
23668;SDS011;12011;47.422;15.018;2022-07-03T18:05:59;2.80;;;2.80;;
23668;SDS011;12011;47.422;15.018;2022-07-03T18:08:33;2.94;;;2.94;;
23668;SDS011;12011;47.422;15.018;2022-07-03T18:11:14;2.75;;;2.75;;
23668;SDS011;12011;47.422;15.018;2022-07-03T18:13:54;3.32;;;3.32;;
23668;SDS011;12011;47.422;15.018;2022-07-03T18:16:34;3.39;;;3.39;;
23668;SDS011;12011;47.422;15.018;2022-07-03T18:19:07;3.58;;;3.58;;
23668;SDS011;12011;47.422;15.018;2022-07-03T18:21:42;3.78;;;3.78;;
23668;SDS011;12011;47.422;15.018;2022-07-03T18:24:16;3.42;;;3.42;;
23668;SDS011;12011;47.422;15.018;2022-07-03T18:26:47;3.46;;;3.46;;
23668;SDS011;12011;47.422;15.018;2022-07-03T18:29:26;3.27;;;3.27;;
23668;SDS011;12011;47.422;15.018;2022-07-03T18:31:58;2.78;;;2.78;;
23668;SDS011;12011;47.422;15.018;2022-07-03T18:34:29;2.52;;;2.52;;
23668;SDS011;12011;47.422;15.018;2022-07-03T18:37:04;2.52;;;2.52;;
23668;SDS011;12011;47.422;15.018;2022-07-03T18:39:34;2.49;;;2.49;;
23668;SDS011;12011;47.422;15.018;2022-07-03T18:42:07;2.43;;;2.43;;
23668;SDS011;12011;47.422;15.018;2022-07-03T18:44:37;2.41;;;2.41;;
23668;SDS011;12011;47.422;15.018;2022-07-03T18:47:07;2.35;;;2.35;;
23668;SDS011;12011;47.422;15.018;2022-07-03T18:49:37;2.54;;;2.54;;
23668;SDS011;12011;47.422;15.018;2022-07-03T18:52:12;2.50;;;2.50;;
23668;SDS011;12011;47.422;15.018;2022-07-03T18:54:51;2.75;;;2.75;;
23668;SDS011;12011;47.422;15.018;2022-07-03T18:57:32;2.38;;;2.38;;
23668;SDS011;12011;47.422;15.018;2022-07-03T19:00:08;2.54;;;2.54;;
23668;SDS011;12011;47.422;15.018;2022-07-03T19:02:43;2.72;;;2.72;;
23668;SDS011;12011;47.422;15.018;2022-07-03T19:05:26;2.57;;;2.57;;
23668;SDS011;12011;47.422;15.018;2022-07-03T19:08:12;2.55;;;2.55;;
23668;SDS011;12011;47.422;15.018;2022-07-03T19:10:54;2.59;;;2.59;;
23668;SDS011;12011;47.422;15.018;2022-07-03T19:13:34;2.48;;;2.48;;
23668;SDS011;12011;47.422;15.018;2022-07-03T19:16:13;2.44;;;2.44;;
23668;SDS011;12011;47.422;15.018;2022-07-03T19:18:44;2.51;;;2.51;;
23668;SDS011;12011;47.422;15.018;2022-07-03T19:21:14;2.44;;;2.44;;
23668;SDS011;12011;47.422;15.018;2022-07-03T19:23:48;2.41;;;2.41;;
23668;SDS011;12011;47.422;15.018;2022-07-03T19:26:20;2.65;;;2.65;;
23668;SDS011;12011;47.422;15.018;2022-07-03T19:28:50;2.56;;;2.56;;
23668;SDS011;12011;47.422;15.018;2022-07-03T19:31:20;2.70;;;2.70;;
23668;SDS011;12011;47.422;15.018;2022-07-03T19:33:50;2.54;;;2.54;;
23668;SDS011;12011;47.422;15.018;2022-07-03T19:36:20;2.78;;;2.78;;
23668;SDS011;12011;47.422;15.018;2022-07-03T19:38:54;2.94;;;2.94;;
23668;SDS011;12011;47.422;15.018;2022-07-03T19:41:24;2.80;;;2.80;;
23668;SDS011;12011;47.422;15.018;2022-07-03T19:43:54;2.91;;;2.91;;
23668;SDS011;12011;47.422;15.018;2022-07-03T19:46:25;2.79;;;2.79;;
23668;SDS011;12011;47.422;15.018;2022-07-03T19:48:56;3.23;;;3.23;;
23668;SDS011;12011;47.422;15.018;2022-07-03T19:51:26;3.30;;;3.30;;
23668;SDS011;12011;47.422;15.018;2022-07-03T19:54:01;3.40;;;3.40;;
23668;SDS011;12011;47.422;15.018;2022-07-03T19:56:31;3.68;;;3.68;;
23668;SDS011;12011;47.422;15.018;2022-07-03T19:59:01;3.65;;;3.65;;
23668;SDS011;12011;47.422;15.018;2022-07-03T20:01:32;3.65;;;3.65;;
23668;SDS011;12011;47.422;15.018;2022-07-03T20:04:04;3.82;;;3.82;;
23668;SDS011;12011;47.422;15.018;2022-07-03T20:06:34;3.89;;;3.89;;
23668;SDS011;12011;47.422;15.018;2022-07-03T20:09:06;3.72;;;3.72;;
23668;SDS011;12011;47.422;15.018;2022-07-03T20:11:36;3.81;;;3.81;;
23668;SDS011;12011;47.422;15.018;2022-07-03T20:14:06;3.85;;;3.85;;
23668;SDS011;12011;47.422;15.018;2022-07-03T20:16:35;3.34;;;3.34;;
23668;SDS011;12011;47.422;15.018;2022-07-03T20:19:05;3.54;;;3.54;;
23668;SDS011;12011;47.422;15.018;2022-07-03T20:21:36;3.50;;;3.50;;
23668;SDS011;12011;47.422;15.018;2022-07-03T20:24:08;3.47;;;3.47;;
23668;SDS011;12011;47.422;15.018;2022-07-03T20:26:52;3.21;;;3.21;;
23668;SDS011;12011;47.422;15.018;2022-07-03T20:29:23;3.12;;;3.12;;
23668;SDS011;12011;47.422;15.018;2022-07-03T20:31:53;3.48;;;3.48;;
23668;SDS011;12011;47.422;15.018;2022-07-03T20:34:23;3.38;;;3.38;;
23668;SDS011;12011;47.422;15.018;2022-07-03T20:36:52;3.35;;;3.35;;
23668;SDS011;12011;47.422;15.018;2022-07-03T20:39:25;3.31;;;3.31;;
23668;SDS011;12011;47.422;15.018;2022-07-03T20:41:55;3.31;;;3.31;;
23668;SDS011;12011;47.422;15.018;2022-07-03T20:44:26;3.47;;;3.47;;
23668;SDS011;12011;47.422;15.018;2022-07-03T20:46:56;3.25;;;3.25;;
23668;SDS011;12011;47.422;15.018;2022-07-03T20:49:27;3.54;;;3.54;;
23668;SDS011;12011;47.422;15.018;2022-07-03T20:51:57;3.37;;;3.37;;
23668;SDS011;12011;47.422;15.018;2022-07-03T20:54:30;3.47;;;3.47;;
23668;SDS011;12011;47.422;15.018;2022-07-03T20:57:00;3.85;;;3.85;;
23668;SDS011;12011;47.422;15.018;2022-07-03T20:59:32;3.56;;;3.56;;
23668;SDS011;12011;47.422;15.018;2022-07-03T21:02:02;3.61;;;3.61;;
23668;SDS011;12011;47.422;15.018;2022-07-03T21:04:34;3.59;;;3.59;;
23668;SDS011;12011;47.422;15.018;2022-07-03T21:07:05;4.01;;;4.01;;
23668;SDS011;12011;47.422;15.018;2022-07-03T21:09:37;3.78;;;3.78;;
23668;SDS011;12011;47.422;15.018;2022-07-03T21:12:07;3.66;;;3.66;;
23668;SDS011;12011;47.422;15.018;2022-07-03T21:14:37;3.67;;;3.67;;
23668;SDS011;12011;47.422;15.018;2022-07-03T21:17:07;3.77;;;3.77;;
23668;SDS011;12011;47.422;15.018;2022-07-03T21:19:37;3.61;;;3.61;;
23668;SDS011;12011;47.422;15.018;2022-07-03T21:22:07;3.48;;;3.48;;
23668;SDS011;12011;47.422;15.018;2022-07-03T21:24:42;3.58;;;3.58;;
23668;SDS011;12011;47.422;15.018;2022-07-03T21:27:11;3.51;;;3.51;;
23668;SDS011;12011;47.422;15.018;2022-07-03T21:29:42;3.66;;;3.66;;
23668;SDS011;12011;47.422;15.018;2022-07-03T21:32:13;3.59;;;3.59;;
23668;SDS011;12011;47.422;15.018;2022-07-03T21:34:43;3.30;;;3.30;;
23668;SDS011;12011;47.422;15.018;2022-07-03T21:37:13;3.15;;;3.15;;
23668;SDS011;12011;47.422;15.018;2022-07-03T21:39:45;3.60;;;3.60;;
23668;SDS011;12011;47.422;15.018;2022-07-03T21:42:14;3.82;;;3.82;;
23668;SDS011;12011;47.422;15.018;2022-07-03T21:44:44;3.74;;;3.74;;
23668;SDS011;12011;47.422;15.018;2022-07-03T21:47:14;4.02;;;4.02;;
23668;SDS011;12011;47.422;15.018;2022-07-03T21:49:43;3.57;;;3.57;;
23668;SDS011;12011;47.422;15.018;2022-07-03T21:52:13;3.61;;;3.61;;
23668;SDS011;12011;47.422;15.018;2022-07-03T21:54:45;3.45;;;3.45;;
23668;SDS011;12011;47.422;15.018;2022-07-03T21:57:15;3.65;;;3.65;;
23668;SDS011;12011;47.422;15.018;2022-07-03T21:59:45;3.82;;;3.82;;
23668;SDS011;12011;47.422;15.018;2022-07-03T22:02:15;3.67;;;3.67;;
23668;SDS011;12011;47.422;15.018;2022-07-03T22:04:45;3.59;;;3.59;;
23668;SDS011;12011;47.422;15.018;2022-07-03T22:07:14;3.68;;;3.68;;
23668;SDS011;12011;47.422;15.018;2022-07-03T22:09:47;3.98;;;3.98;;
23668;SDS011;12011;47.422;15.018;2022-07-03T22:12:17;4.13;;;4.13;;
23668;SDS011;12011;47.422;15.018;2022-07-03T22:15:02;4.10;;;4.10;;
23668;SDS011;12011;47.422;15.018;2022-07-03T22:17:36;4.35;;;4.35;;
23668;SDS011;12011;47.422;15.018;2022-07-03T22:20:08;4.29;;;4.29;;
23668;SDS011;12011;47.422;15.018;2022-07-03T22:22:40;4.52;;;4.52;;
23668;SDS011;12011;47.422;15.018;2022-07-03T22:25:13;4.28;;;4.28;;
23668;SDS011;12011;47.422;15.018;2022-07-03T22:27:44;4.78;;;4.78;;
23668;SDS011;12011;47.422;15.018;2022-07-03T22:30:14;4.69;;;4.69;;
23668;SDS011;12011;47.422;15.018;2022-07-03T22:32:44;4.23;;;4.23;;
23668;SDS011;12011;47.422;15.018;2022-07-03T22:35:14;4.39;;;4.39;;
23668;SDS011;12011;47.422;15.018;2022-07-03T22:37:45;4.41;;;4.41;;
23668;SDS011;12011;47.422;15.018;2022-07-03T22:40:18;4.68;;;4.68;;
23668;SDS011;12011;47.422;15.018;2022-07-03T22:42:49;4.71;;;4.71;;
23668;SDS011;12011;47.422;15.018;2022-07-03T22:45:21;4.49;;;4.49;;
23668;SDS011;12011;47.422;15.018;2022-07-03T22:47:51;4.50;;;4.50;;
23668;SDS011;12011;47.422;15.018;2022-07-03T22:50:21;4.34;;;4.34;;
23668;SDS011;12011;47.422;15.018;2022-07-03T22:52:51;4.34;;;4.34;;
23668;SDS011;12011;47.422;15.018;2022-07-03T22:55:23;4.14;;;4.14;;
23668;SDS011;12011;47.422;15.018;2022-07-03T22:57:53;4.21;;;4.21;;
23668;SDS011;12011;47.422;15.018;2022-07-03T23:00:23;4.35;;;4.35;;
23668;SDS011;12011;47.422;15.018;2022-07-03T23:02:53;4.14;;;4.14;;
23668;SDS011;12011;47.422;15.018;2022-07-03T23:05:22;4.51;;;4.51;;
23668;SDS011;12011;47.422;15.018;2022-07-03T23:07:52;4.06;;;4.06;;
23668;SDS011;12011;47.422;15.018;2022-07-03T23:10:24;4.43;;;4.43;;
23668;SDS011;12011;47.422;15.018;2022-07-03T23:12:54;4.59;;;4.59;;
23668;SDS011;12011;47.422;15.018;2022-07-03T23:15:24;4.53;;;4.53;;
23668;SDS011;12011;47.422;15.018;2022-07-03T23:17:53;4.37;;;4.37;;
23668;SDS011;12011;47.422;15.018;2022-07-03T23:20:23;4.77;;;4.77;;
23668;SDS011;12011;47.422;15.018;2022-07-03T23:22:53;4.64;;;4.64;;
23668;SDS011;12011;47.422;15.018;2022-07-03T23:25:26;4.85;;;4.85;;
23668;SDS011;12011;47.422;15.018;2022-07-03T23:27:56;4.95;;;4.95;;
23668;SDS011;12011;47.422;15.018;2022-07-03T23:30:26;4.76;;;4.76;;
23668;SDS011;12011;47.422;15.018;2022-07-03T23:32:55;4.70;;;4.70;;
23668;SDS011;12011;47.422;15.018;2022-07-03T23:35:25;4.82;;;4.82;;
23668;SDS011;12011;47.422;15.018;2022-07-03T23:37:55;4.64;;;4.64;;
23668;SDS011;12011;47.422;15.018;2022-07-03T23:40:28;5.02;;;5.02;;
23668;SDS011;12011;47.422;15.018;2022-07-03T23:42:57;4.67;;;4.67;;
23668;SDS011;12011;47.422;15.018;2022-07-03T23:45:27;4.73;;;4.73;;
23668;SDS011;12011;47.422;15.018;2022-07-03T23:47:57;4.88;;;4.88;;
23668;SDS011;12011;47.422;15.018;2022-07-03T23:50:27;4.65;;;4.65;;
23668;SDS011;12011;47.422;15.018;2022-07-03T23:53:03;4.65;;;4.65;;
23668;SDS011;12011;47.422;15.018;2022-07-03T23:55:38;4.63;;;4.63;;
23668;SDS011;12011;47.422;15.018;2022-07-03T23:58:08;4.68;;;4.68;;
